Scf Pearl — D5AE5 — position and weather

sailwx.info

Track history (hours):
 
Tides and Currents Weather Stations Pressure Air Temp Water Temp Dewpoint Dewpoint Depression Visibility Wind Speed Wind Dir Waves Ship Positions

Scf Pearl

Last reported at 2017-Nov-27 17:11 UTC. Time now 2017-Dec-18 20:38 UTC.
Position N 22°43' W 111°23'.
Warning: this ship's position is 21 days out of date.

Length 228 m; draft 8 m.

Type: Ship. MMSI: 636015359.

Date/timePositionNaut miles runAvg speedWind from/ knotsBaromVisibWave heightAir tempDewpointWater temp
2017-Nov-27 17:11N 22°43' W 111°23'213.8
2017-Nov-27 17:00N 22°44' W 111°25'4213.3
2017-Nov-27 13:53N 23°11' W 111°60'11313.3
2017-Nov-27 05:23N 24°22' W 113°35'1313.1
2017-Nov-27 04:22N 24°30' W 113°46'512.8
2017-Nov-27 04:00N 24°33' W 113°50'2112.8
2017-Nov-27 02:24N 24°47' W 114°08'512.9
2017-Nov-27 02:00N 24°49' W 114°12'712.6
2017-Nov-27 01:27N 24°54' W 114°18'612.9
2017-Nov-27 01:00N 24°58' W 114°23'2813.0
2017-Nov-26 22:53N 25°15' W 114°47'514.0
2017-Nov-26 22:30N 25°18' W 114°51'3015.2
2017-Nov-26 20:33N 25°37' W 115°17'114.7
2017-Nov-26 20:30N 25°38' W 115°17'714.6
2017-Nov-26 19:59N 25°43' W 115°24'1314.0
2017-Nov-26 19:02N 25°51' W 115°35'114.4
2017-Nov-26 19:00N 25°51' W 115°36'713.7
2017-Nov-26 18:30N 25°56' W 115°42'713.5
2017-Nov-26 18:00N 25°60' W 115°47'2013.5
2017-Nov-26 16:32N 26°12' W 116°04'113.3
2017-Nov-26 16:29N 26°13' W 116°05'613.3
2017-Nov-26 16:00N 26°17' W 116°11'913.2
2017-Nov-26 15:19N 26°22' W 116°19'8913.5
2017-Nov-26 08:46N 27°19' W 117°35'5013.7
2017-Nov-26 05:08N 27°50' W 118°19'213.8
2017-Nov-26 05:00N 27°51' W 118°20'4313.9
2017-Nov-26 01:57N 28°18' W 118°58'613.7
2017-Nov-26 01:31N 28°22' W 119°03'713.8
2017-Nov-26 01:01N 28°27' W 119°09'713.6
2017-Nov-26 00:30N 28°31' W 119°15'713.9
2017-Nov-25 23:59N 28°35' W 119°21'713.9
2017-Nov-25 23:30N 28°39' W 119°27'1113.8
2017-Nov-25 22:42N 28°47' W 119°37'413.8
2017-Nov-25 22:26N 28°49' W 119°40'613.9
2017-Nov-25 22:00N 28°53' W 119°45'713.7
2017-Nov-25 21:30N 28°57' W 119°52'713.6
2017-Nov-25 21:00N 29°01' W 119°58'713.5
2017-Nov-25 20:30N 29°05' W 120°04'713.5
2017-Nov-25 20:00N 29°10' W 120°10'713.5
2017-Nov-25 19:30N 29°14' W 120°16'1513.6
2017-Nov-25 18:25N 29°23' W 120°29'1013.6
2017-Nov-25 17:38N 29°30' W 120°38'413.5
2017-Nov-25 17:19N 29°33' W 120°42'413.5
2017-Nov-25 17:00N 29°36' W 120°46'713.4
2017-Nov-25 16:30N 29°40' W 120°52'713.4
2017-Nov-25 16:00N 29°44' W 120°58'713.3
2017-Nov-25 15:30N 29°48' W 121°04'1013.5
2017-Nov-25 14:46N 29°55' W 121°13'313.7
2017-Nov-25 14:30N 29°57' W 121°16'713.7
2017-Nov-25 14:01N 30°01' W 121°22'713.8
2017-Nov-25 13:31N 30°05' W 121°28'714.0
2017-Nov-25 13:01N 30°10' W 121°34'713.9
2017-Nov-25 12:31N 30°14' W 121°40'713.8
2017-Nov-25 12:01N 30°19' W 121°47'713.7
2017-Nov-25 11:30N 30°23' W 121°53'713.7
2017-Nov-25 11:00N 30°27' W 121°59'713.6
2017-Nov-25 10:30N 30°32' W 122°05'713.4
2017-Nov-25 10:00N 30°36' W 122°11'713.8
2017-Nov-25 09:30N 30°40' W 122°17'713.5
2017-Nov-25 09:00N 30°45' W 122°23'713.4
2017-Nov-25 08:30N 30°50' W 122°29'713.3
2017-Nov-25 08:00N 30°55' W 122°34'713.3
2017-Nov-25 07:30N 30°59' W 122°39'713.1
2017-Nov-25 07:00N 31°04' W 122°44'713.2
2017-Nov-25 06:30N 31°09' W 122°49'713.3
2017-Nov-25 06:00N 31°14' W 122°54'713.5
2017-Nov-25 05:31N 31°19' W 122°60'713.4
2017-Nov-25 04:57N 31°25' W 123°05'613.6
2017-Nov-25 04:30N 31°29' W 123°10'713.5
2017-Nov-25 04:00N 31°34' W 123°15'1313.4
2017-Nov-25 03:04N 31°44' W 123°25'113.7
2017-Nov-25 02:59N 31°44' W 123°27'713.6
2017-Nov-25 02:30N 31°49' W 123°32'713.6
2017-Nov-25 01:57N 31°55' W 123°38'913.7
2017-Nov-25 01:15N 32°02' W 123°45'313.7
2017-Nov-25 01:01N 32°05' W 123°48'713.5
2017-Nov-25 00:31N 32°10' W 123°53'713.5
2017-Nov-25 00:01N 32°15' W 123°58'713.4
2017-Nov-24 23:30N 32°20' W 124°04'713.5
2017-Nov-24 23:01N 32°25' W 124°09'713.6
2017-Nov-24 22:31N 32°30' W 124°14'713.7
2017-Nov-24 22:00N 32°35' W 124°19'713.6
2017-Nov-24 21:30N 32°40' W 124°25'713.6
2017-Nov-24 21:00N 32°45' W 124°31'  
2017-Nov-20 00:29N 48°31' W 122°35'0 0.0
2017-Nov-19 23:53N 48°31' W 122°35'0 0.0
2017-Nov-19 23:29N 48°31' W 122°35'0 0.0
2017-Nov-19 22:59N 48°31' W 122°35'0 0.0
2017-Nov-19 22:23N 48°31' W 122°35'0 0.0
2017-Nov-19 21:53N 48°31' W 122°35'0 0.0
2017-Nov-19 21:29N 48°31' W 122°35'0 0.0
2017-Nov-19 20:59N 48°31' W 122°35'0 0.0
2017-Nov-19 20:29N 48°31' W 122°35'0 0.0
2017-Nov-19 19:59N 48°31' W 122°35'0 0.0
2017-Nov-19 19:29N 48°31' W 122°35'0 0.0
2017-Nov-19 18:59N 48°31' W 122°35'0 0.0
2017-Nov-19 18:29N 48°31' W 122°35'0 0.0
2017-Nov-19 17:59N 48°31' W 122°35'0 0.0
2017-Nov-19 17:29N 48°31' W 122°35'0 0.0
2017-Nov-19 16:59N 48°31' W 122°35'0 0.0
2017-Nov-19 16:23N 48°31' W 122°35'0 0.0
2017-Nov-19 15:59N 48°31' W 122°35'0 0.0
2017-Nov-19 15:29N 48°31' W 122°35'0 0.0
2017-Nov-19 14:59N 48°31' W 122°35'0 0.0
2017-Nov-19 14:29N 48°31' W 122°35'0 0.0
2017-Nov-19 13:41N 48°31' W 122°35'0 0.0
2017-Nov-19 13:23N 48°31' W 122°35'0 0.0
2017-Nov-19 12:59N 48°31' W 122°35'0 0.0
2017-Nov-19 12:29N 48°31' W 122°35'0 0.0
2017-Nov-19 11:59N 48°31' W 122°35'0 0.0
2017-Nov-19 11:29N 48°31' W 122°35'0 0.0
2017-Nov-19 10:59N 48°31' W 122°35'0 0.0
2017-Nov-19 10:29N 48°31' W 122°35'0 0.0
2017-Nov-19 09:59N 48°31' W 122°35'0 0.0
2017-Nov-19 09:29N 48°31' W 122°35'0 0.0
2017-Nov-19 08:53N 48°31' W 122°35'0 0.0
2017-Nov-19 08:29N 48°31' W 122°35'0 0.0
2017-Nov-19 07:59N 48°31' W 122°35'0 0.0
2017-Nov-19 07:29N 48°31' W 122°35'0 0.0
2017-Nov-19 06:59N 48°31' W 122°35'0 0.0
2017-Nov-19 06:29N 48°31' W 122°35'0 0.0
2017-Nov-19 05:59N 48°31' W 122°35'0 0.0
2017-Nov-19 05:29N 48°31' W 122°35'0 0.0
2017-Nov-19 04:59N 48°31' W 122°35'0 0.0
2017-Nov-19 04:29N 48°31' W 122°35'0 0.0
2017-Nov-19 03:59N 48°31' W 122°35'0 0.0
2017-Nov-19 03:29N 48°31' W 122°35'0 0.0
2017-Nov-19 02:59N 48°31' W 122°35'0 0.0
2017-Nov-19 02:29N 48°31' W 122°35'0 0.0
2017-Nov-19 02:00N 48°31' W 122°35'0 0.9
2017-Nov-19 01:30N 48°31' W 122°35'3 6.1
2017-Nov-19 01:00N 48°34' W 122°35'3 6.5
2017-Nov-19 00:30N 48°37' W 122°34'0 0.2
2017-Nov-18 23:43N 48°37' W 122°35'0 0.0
2017-Nov-18 23:13N 48°37' W 122°35'0 0.0
2017-Nov-18 22:58N 48°37' W 122°35'0 0.1
2017-Nov-18 22:19N 48°37' W 122°34'0 0.1
2017-Nov-18 21:55N 48°37' W 122°35'0 0.0
2017-Nov-18 21:28N 48°37' W 122°35'0 0.0
2017-Nov-18 20:55N 48°37' W 122°35'0 0.1
2017-Nov-18 20:28N 48°37' W 122°34'0 0.1
2017-Nov-18 19:43N 48°37' W 122°35'0 0.1
2017-Nov-18 19:13N 48°37' W 122°35'0 0.0
2017-Nov-18 18:55N 48°37' W 122°35'0 0.0
2017-Nov-18 18:19N 48°37' W 122°35'0 0.0
2017-Nov-18 17:55N 48°37' W 122°35'0 0.0
2017-Nov-18 17:28N 48°37' W 122°35'0 0.0
2017-Nov-18 16:55N 48°37' W 122°35'0 0.0
2017-Nov-18 16:25N 48°37' W 122°35'0 0.0
2017-Nov-18 15:58N 48°37' W 122°35'0 0.0
2017-Nov-18 15:28N 48°37' W 122°35'0 0.0
2017-Nov-18 14:49N 48°37' W 122°35'0 0.0
2017-Nov-18 14:25N 48°37' W 122°35'0 0.0
2017-Nov-18 13:43N 48°37' W 122°35'0 0.0
2017-Nov-18 13:25N 48°37' W 122°35'0 0.0
2017-Nov-18 12:58N 48°37' W 122°35'0 0.0
2017-Nov-18 12:25N 48°37' W 122°35'0 0.1
2017-Nov-18 11:55N 48°37' W 122°35'0 0.1
2017-Nov-18 11:13N 48°37' W 122°34'0 0.2
2017-Nov-18 10:58N 48°37' W 122°35'0 0.0
2017-Nov-18 10:28N 48°37' W 122°35'0 0.0
2017-Nov-18 09:58N 48°37' W 122°35'0 0.0
2017-Nov-18 09:16N 48°37' W 122°35'0 0.1
2017-Nov-18 08:58N 48°37' W 122°34'0 0.1
2017-Nov-18 08:25N 48°37' W 122°35'0 0.0
2017-Nov-18 07:58N 48°37' W 122°35'0 0.1
2017-Nov-18 07:25N 48°37' W 122°35'0 0.0
2017-Nov-18 06:37N 48°37' W 122°35'0 0.0
2017-Nov-18 06:19N 48°37' W 122°35'0 0.1
2017-Nov-18 05:55N 48°37' W 122°35'0 0.1
2017-Nov-18 05:28N 48°37' W 122°35'0 0.0
2017-Nov-18 04:55N 48°37' W 122°35'0 0.0
2017-Nov-18 04:25N 48°37' W 122°35'0 0.0
2017-Nov-18 03:55N 48°37' W 122°35'0 0.3
2017-Nov-18 03:25N 48°37' W 122°34'0 0.1
2017-Nov-18 02:58N 48°37' W 122°34'0 0.1
2017-Nov-18 02:13N 48°37' W 122°34'0 0.1
2017-Nov-18 01:55N 48°37' W 122°34'0 0.2
2017-Nov-18 01:28N 48°37' W 122°34'0 0.0
2017-Nov-18 00:58N 48°37' W 122°34'0 0.0
2017-Nov-18 00:28N 48°37' W 122°34'0 0.0
2017-Nov-17 23:58N 48°37' W 122°34'0 0.1
2017-Nov-17 23:25N 48°37' W 122°34'0 0.0
2017-Nov-17 22:58N 48°37' W 122°34'0 0.1
2017-Nov-17 22:25N 48°37' W 122°34'0 0.1
2017-Nov-17 21:58N 48°37' W 122°34'0 0.0
2017-Nov-17 21:25N 48°37' W 122°34'0 0.0
2017-Nov-17 20:55N 48°37' W 122°34'0 0.0
2017-Nov-17 20:25N 48°37' W 122°34'0 0.1
2017-Nov-17 19:55N 48°37' W 122°34'0 0.0
2017-Nov-17 19:25N 48°37' W 122°34'0 0.1
2017-Nov-17 18:55N 48°37' W 122°34'0 0.1
2017-Nov-17 18:22N 48°37' W 122°34'0 0.1
2017-Nov-17 17:58N 48°37' W 122°34'0 0.1
2017-Nov-17 17:25N 48°37' W 122°34'  
Track history (hours):
 
Tides and Currents Weather Stations Pressure Air Temp Water Temp Dewpoint Dewpoint Depression Visibility Wind Speed Wind Dir Waves Ship Positions

Scf Pearl

Last reported at 2017-Nov-27 17:11 UTC. Time now 2017-Dec-18 20:38 UTC.
Position N 22°43' W 111°23'.
Warning: this ship's position is 21 days out of date.

Length 228 m; draft 8 m.

Type: Ship. MMSI: 636015359.

Date/timePositionNaut miles runAvg speedWind from/ knotsBaromVisibWave heightAir tempDewpointWater temp
2017-Nov-27 17:11N 22°43' W 111°23'213.8
2017-Nov-27 17:00N 22°44' W 111°25'4213.3
2017-Nov-27 13:53N 23°11' W 111°60'11313.3
2017-Nov-27 05:23N 24°22' W 113°35'1313.1
2017-Nov-27 04:22N 24°30' W 113°46'512.8
2017-Nov-27 04:00N 24°33' W 113°50'2112.8
2017-Nov-27 02:24N 24°47' W 114°08'512.9
2017-Nov-27 02:00N 24°49' W 114°12'712.6
2017-Nov-27 01:27N 24°54' W 114°18'612.9
2017-Nov-27 01:00N 24°58' W 114°23'2813.0
2017-Nov-26 22:53N 25°15' W 114°47'514.0
2017-Nov-26 22:30N 25°18' W 114°51'3015.2
2017-Nov-26 20:33N 25°37' W 115°17'114.7
2017-Nov-26 20:30N 25°38' W 115°17'714.6
2017-Nov-26 19:59N 25°43' W 115°24'1314.0
2017-Nov-26 19:02N 25°51' W 115°35'114.4
2017-Nov-26 19:00N 25°51' W 115°36'713.7
2017-Nov-26 18:30N 25°56' W 115°42'713.5
2017-Nov-26 18:00N 25°60' W 115°47'2013.5
2017-Nov-26 16:32N 26°12' W 116°04'113.3
2017-Nov-26 16:29N 26°13' W 116°05'613.3
2017-Nov-26 16:00N 26°17' W 116°11'913.2
2017-Nov-26 15:19N 26°22' W 116°19'8913.5
2017-Nov-26 08:46N 27°19' W 117°35'5013.7
2017-Nov-26 05:08N 27°50' W 118°19'213.8
2017-Nov-26 05:00N 27°51' W 118°20'4313.9
2017-Nov-26 01:57N 28°18' W 118°58'613.7
2017-Nov-26 01:31N 28°22' W 119°03'713.8
2017-Nov-26 01:01N 28°27' W 119°09'713.6
2017-Nov-26 00:30N 28°31' W 119°15'713.9
2017-Nov-25 23:59N 28°35' W 119°21'713.9
2017-Nov-25 23:30N 28°39' W 119°27'1113.8
2017-Nov-25 22:42N 28°47' W 119°37'413.8
2017-Nov-25 22:26N 28°49' W 119°40'613.9
2017-Nov-25 22:00N 28°53' W 119°45'713.7
2017-Nov-25 21:30N 28°57' W 119°52'713.6
2017-Nov-25 21:00N 29°01' W 119°58'713.5
2017-Nov-25 20:30N 29°05' W 120°04'713.5
2017-Nov-25 20:00N 29°10' W 120°10'713.5
2017-Nov-25 19:30N 29°14' W 120°16'1513.6
2017-Nov-25 18:25N 29°23' W 120°29'1013.6
2017-Nov-25 17:38N 29°30' W 120°38'413.5
2017-Nov-25 17:19N 29°33' W 120°42'413.5
2017-Nov-25 17:00N 29°36' W 120°46'713.4
2017-Nov-25 16:30N 29°40' W 120°52'713.4
2017-Nov-25 16:00N 29°44' W 120°58'713.3
2017-Nov-25 15:30N 29°48' W 121°04'1013.5
2017-Nov-25 14:46N 29°55' W 121°13'313.7
2017-Nov-25 14:30N 29°57' W 121°16'713.7
2017-Nov-25 14:01N 30°01' W 121°22'713.8
2017-Nov-25 13:31N 30°05' W 121°28'714.0
2017-Nov-25 13:01N 30°10' W 121°34'713.9
2017-Nov-25 12:31N 30°14' W 121°40'713.8
2017-Nov-25 12:01N 30°19' W 121°47'713.7
2017-Nov-25 11:30N 30°23' W 121°53'713.7
2017-Nov-25 11:00N 30°27' W 121°59'713.6
2017-Nov-25 10:30N 30°32' W 122°05'713.4
2017-Nov-25 10:00N 30°36' W 122°11'713.8
2017-Nov-25 09:30N 30°40' W 122°17'713.5
2017-Nov-25 09:00N 30°45' W 122°23'713.4
2017-Nov-25 08:30N 30°50' W 122°29'713.3
2017-Nov-25 08:00N 30°55' W 122°34'713.3
2017-Nov-25 07:30N 30°59' W 122°39'713.1
2017-Nov-25 07:00N 31°04' W 122°44'713.2
2017-Nov-25 06:30N 31°09' W 122°49'713.3
2017-Nov-25 06:00N 31°14' W 122°54'713.5
2017-Nov-25 05:31N 31°19' W 122°60'713.4
2017-Nov-25 04:57N 31°25' W 123°05'613.6
2017-Nov-25 04:30N 31°29' W 123°10'713.5
2017-Nov-25 04:00N 31°34' W 123°15'1313.4
2017-Nov-25 03:04N 31°44' W 123°25'113.7
2017-Nov-25 02:59N 31°44' W 123°27'713.6
2017-Nov-25 02:30N 31°49' W 123°32'713.6
2017-Nov-25 01:57N 31°55' W 123°38'913.7
2017-Nov-25 01:15N 32°02' W 123°45'313.7
2017-Nov-25 01:01N 32°05' W 123°48'713.5
2017-Nov-25 00:31N 32°10' W 123°53'713.5
2017-Nov-25 00:01N 32°15' W 123°58'713.4
2017-Nov-24 23:30N 32°20' W 124°04'713.5
2017-Nov-24 23:01N 32°25' W 124°09'713.6
2017-Nov-24 22:31N 32°30' W 124°14'713.7
2017-Nov-24 22:00N 32°35' W 124°19'713.6
2017-Nov-24 21:30N 32°40' W 124°25'713.6
2017-Nov-24 21:00N 32°45' W 124°31'  
2017-Nov-20 00:29N 48°31' W 122°35'0 0.0
2017-Nov-19 23:53N 48°31' W 122°35'0 0.0
2017-Nov-19 23:29N 48°31' W 122°35'0 0.0
2017-Nov-19 22:59N 48°31' W 122°35'0 0.0
2017-Nov-19 22:23N 48°31' W 122°35'0 0.0
2017-Nov-19 21:53N 48°31' W 122°35'0 0.0
2017-Nov-19 21:29N 48°31' W 122°35'0 0.0
2017-Nov-19 20:59N 48°31' W 122°35'0 0.0
2017-Nov-19 20:29N 48°31' W 122°35'0 0.0
2017-Nov-19 19:59N 48°31' W 122°35'0 0.0
2017-Nov-19 19:29N 48°31' W 122°35'0 0.0
2017-Nov-19 18:59N 48°31' W 122°35'0 0.0
2017-Nov-19 18:29N 48°31' W 122°35'0 0.0
2017-Nov-19 17:59N 48°31' W 122°35'0 0.0
2017-Nov-19 17:29N 48°31' W 122°35'0 0.0
2017-Nov-19 16:59N 48°31' W 122°35'0 0.0
2017-Nov-19 16:23N 48°31' W 122°35'0 0.0
2017-Nov-19 15:59N 48°31' W 122°35'0 0.0
2017-Nov-19 15:29N 48°31' W 122°35'0 0.0
2017-Nov-19 14:59N 48°31' W 122°35'0 0.0
2017-Nov-19 14:29N 48°31' W 122°35'0 0.0
2017-Nov-19 13:41N 48°31' W 122°35'0 0.0
2017-Nov-19 13:23N 48°31' W 122°35'0 0.0
2017-Nov-19 12:59N 48°31' W 122°35'0 0.0
2017-Nov-19 12:29N 48°31' W 122°35'0 0.0
2017-Nov-19 11:59N 48°31' W 122°35'0 0.0
2017-Nov-19 11:29N 48°31' W 122°35'0 0.0
2017-Nov-19 10:59N 48°31' W 122°35'0 0.0
2017-Nov-19 10:29N 48°31' W 122°35'0 0.0
2017-Nov-19 09:59N 48°31' W 122°35'0 0.0
2017-Nov-19 09:29N 48°31' W 122°35'0 0.0
2017-Nov-19 08:53N 48°31' W 122°35'0 0.0
2017-Nov-19 08:29N 48°31' W 122°35'0 0.0
2017-Nov-19 07:59N 48°31' W 122°35'0 0.0
2017-Nov-19 07:29N 48°31' W 122°35'0 0.0
2017-Nov-19 06:59N 48°31' W 122°35'0 0.0
2017-Nov-19 06:29N 48°31' W 122°35'0 0.0
2017-Nov-19 05:59N 48°31' W 122°35'0 0.0
2017-Nov-19 05:29N 48°31' W 122°35'0 0.0
2017-Nov-19 04:59N 48°31' W 122°35'0 0.0
2017-Nov-19 04:29N 48°31' W 122°35'0 0.0
2017-Nov-19 03:59N 48°31' W 122°35'0 0.0
2017-Nov-19 03:29N 48°31' W 122°35'0 0.0
2017-Nov-19 02:59N 48°31' W 122°35'0 0.0
2017-Nov-19 02:29N 48°31' W 122°35'0 0.0
2017-Nov-19 02:00N 48°31' W 122°35'0 0.9
2017-Nov-19 01:30N 48°31' W 122°35'3 6.1
2017-Nov-19 01:00N 48°34' W 122°35'3 6.5
2017-Nov-19 00:30N 48°37' W 122°34'0 0.2
2017-Nov-18 23:43N 48°37' W 122°35'0 0.0
2017-Nov-18 23:13N 48°37' W 122°35'0 0.0
2017-Nov-18 22:58N 48°37' W 122°35'0 0.1
2017-Nov-18 22:19N 48°37' W 122°34'0 0.1
2017-Nov-18 21:55N 48°37' W 122°35'0 0.0
2017-Nov-18 21:28N 48°37' W 122°35'0 0.0
2017-Nov-18 20:55N 48°37' W 122°35'0 0.1
2017-Nov-18 20:28N 48°37' W 122°34'0 0.1
2017-Nov-18 19:43N 48°37' W 122°35'0 0.1
2017-Nov-18 19:13N 48°37' W 122°35'0 0.0
2017-Nov-18 18:55N 48°37' W 122°35'0 0.0
2017-Nov-18 18:19N 48°37' W 122°35'0 0.0
2017-Nov-18 17:55N 48°37' W 122°35'0 0.0
2017-Nov-18 17:28N 48°37' W 122°35'0 0.0
2017-Nov-18 16:55N 48°37' W 122°35'0 0.0
2017-Nov-18 16:25N 48°37' W 122°35'0 0.0
2017-Nov-18 15:58N 48°37' W 122°35'0 0.0
2017-Nov-18 15:28N 48°37' W 122°35'0 0.0
2017-Nov-18 14:49N 48°37' W 122°35'0 0.0
2017-Nov-18 14:25N 48°37' W 122°35'0 0.0
2017-Nov-18 13:43N 48°37' W 122°35'0 0.0
2017-Nov-18 13:25N 48°37' W 122°35'0 0.0
2017-Nov-18 12:58N 48°37' W 122°35'0 0.0
2017-Nov-18 12:25N 48°37' W 122°35'0 0.1
2017-Nov-18 11:55N 48°37' W 122°35'0 0.1
2017-Nov-18 11:13N 48°37' W 122°34'0 0.2
2017-Nov-18 10:58N 48°37' W 122°35'0 0.0
2017-Nov-18 10:28N 48°37' W 122°35'0 0.0
2017-Nov-18 09:58N 48°37' W 122°35'0 0.0
2017-Nov-18 09:16N 48°37' W 122°35'0 0.1
2017-Nov-18 08:58N 48°37' W 122°34'0 0.1
2017-Nov-18 08:25N 48°37' W 122°35'0 0.0
2017-Nov-18 07:58N 48°37' W 122°35'0 0.1
2017-Nov-18 07:25N 48°37' W 122°35'0 0.0
2017-Nov-18 06:37N 48°37' W 122°35'0 0.0
2017-Nov-18 06:19N 48°37' W 122°35'0 0.1
2017-Nov-18 05:55N 48°37' W 122°35'0 0.1
2017-Nov-18 05:28N 48°37' W 122°35'0 0.0
2017-Nov-18 04:55N 48°37' W 122°35'0 0.0
2017-Nov-18 04:25N 48°37' W 122°35'0 0.0
2017-Nov-18 03:55N 48°37' W 122°35'0 0.3
2017-Nov-18 03:25N 48°37' W 122°34'0 0.1
2017-Nov-18 02:58N 48°37' W 122°34'0 0.1
2017-Nov-18 02:13N 48°37' W 122°34'0 0.1
2017-Nov-18 01:55N 48°37' W 122°34'0 0.2
2017-Nov-18 01:28N 48°37' W 122°34'0 0.0
2017-Nov-18 00:58N 48°37' W 122°34'0 0.0
2017-Nov-18 00:28N 48°37' W 122°34'0 0.0
2017-Nov-17 23:58N 48°37' W 122°34'0 0.1
2017-Nov-17 23:25N 48°37' W 122°34'0 0.0
2017-Nov-17 22:58N 48°37' W 122°34'0 0.1
2017-Nov-17 22:25N 48°37' W 122°34'0 0.1
2017-Nov-17 21:58N 48°37' W 122°34'0 0.0
2017-Nov-17 21:25N 48°37' W 122°34'0 0.0
2017-Nov-17 20:55N 48°37' W 122°34'0 0.0
2017-Nov-17 20:25N 48°37' W 122°34'0 0.1
2017-Nov-17 19:55N 48°37' W 122°34'0 0.0
2017-Nov-17 19:25N 48°37' W 122°34'0 0.1
2017-Nov-17 18:55N 48°37' W 122°34'0 0.1
2017-Nov-17 18:22N 48°37' W 122°34'0 0.1
2017-Nov-17 17:58N 48°37' W 122°34'0 0.1
2017-Nov-17 17:25N 48°37' W 122°34'  

Dump ship's entire track history